sensor_id;sensor_type;location;lat;lon;timestamp;temperature;humidity
69084;SHT31;56185;48.526;9.044;2022-08-19T00:01:51;21.83;74.38
69084;SHT31;56185;48.526;9.044;2022-08-19T00:04:18;21.83;74.53
69084;SHT31;56185;48.526;9.044;2022-08-19T00:06:46;21.70;75.21
69084;SHT31;56185;48.526;9.044;2022-08-19T00:09:13;21.57;76.06
69084;SHT31;56185;48.526;9.044;2022-08-19T00:11:39;21.70;74.51
69084;SHT31;56185;48.526;9.044;2022-08-19T00:14:06;21.55;74.46
69084;SHT31;56185;48.526;9.044;2022-08-19T00:16:32;21.49;75.16
69084;SHT31;56185;48.526;9.044;2022-08-19T00:18:57;21.41;75.28
69084;SHT31;56185;48.526;9.044;2022-08-19T00:21:23;21.33;76.34
69084;SHT31;56185;48.526;9.044;2022-08-19T00:23:49;21.33;76.52
69084;SHT31;56185;48.526;9.044;2022-08-19T00:26:14;21.31;77.40
69084;SHT31;56185;48.526;9.044;2022-08-19T00:28:40;21.32;77.19
69084;SHT31;56185;48.526;9.044;2022-08-19T00:31:07;21.28;75.73
69084;SHT31;56185;48.526;9.044;2022-08-19T00:33:33;21.24;76.64
69084;SHT31;56185;48.526;9.044;2022-08-19T00:36:00;21.12;76.35
69084;SHT31;56185;48.526;9.044;2022-08-19T00:38:25;21.01;77.31
69084;SHT31;56185;48.526;9.044;2022-08-19T00:40:50;20.96;76.71
69084;SHT31;56185;48.526;9.044;2022-08-19T00:43:20;21.02;77.73
69084;SHT31;56185;48.526;9.044;2022-08-19T00:45:47;21.04;77.92
69084;SHT31;56185;48.526;9.044;2022-08-19T00:48:12;21.09;77.56
69084;SHT31;56185;48.526;9.044;2022-08-19T00:50:40;21.21;78.73
69084;SHT31;56185;48.526;9.044;2022-08-19T00:53:06;21.15;77.73
69084;SHT31;56185;48.526;9.044;2022-08-19T00:55:33;21.15;78.16
69084;SHT31;56185;48.526;9.044;2022-08-19T00:58:02;21.16;77.80
69084;SHT31;56185;48.526;9.044;2022-08-19T01:00:30;21.16;78.82
69084;SHT31;56185;48.526;9.044;2022-08-19T01:02:55;21.19;78.14
69084;SHT31;56185;48.526;9.044;2022-08-19T01:05:24;21.24;78.55
69084;SHT31;56185;48.526;9.044;2022-08-19T01:07:50;21.12;79.17
69084;SHT31;56185;48.526;9.044;2022-08-19T01:10:18;21.09;79.95
69084;SHT31;56185;48.526;9.044;2022-08-19T01:12:45;21.05;79.13
69084;SHT31;56185;48.526;9.044;2022-08-19T01:15:14;21.01;80.31
69084;SHT31;56185;48.526;9.044;2022-08-19T01:17:41;20.98;80.13
69084;SHT31;56185;48.526;9.044;2022-08-19T01:20:11;20.94;79.13
69084;SHT31;56185;48.526;9.044;2022-08-19T01:22:45;20.94;80.14
69084;SHT31;56185;48.526;9.044;2022-08-19T01:25:16;20.94;79.51
69084;SHT31;56185;48.526;9.044;2022-08-19T01:27:46;20.98;80.48
69084;SHT31;56185;48.526;9.044;2022-08-19T01:30:14;21.05;80.31
69084;SHT31;56185;48.526;9.044;2022-08-19T01:32:40;20.95;80.46
69084;SHT31;56185;48.526;9.044;2022-08-19T01:35:06;20.87;80.98
69084;SHT31;56185;48.526;9.044;2022-08-19T01:37:48;20.91;80.07
69084;SHT31;56185;48.526;9.044;2022-08-19T01:40:14;21.04;78.88
69084;SHT31;56185;48.526;9.044;2022-08-19T01:42:39;20.95;79.13
69084;SHT31;56185;48.526;9.044;2022-08-19T01:45:05;20.96;79.31
69084;SHT31;56185;48.526;9.044;2022-08-19T01:47:30;20.94;79.98
69084;SHT31;56185;48.526;9.044;2022-08-19T01:49:57;20.81;79.99
69084;SHT31;56185;48.526;9.044;2022-08-19T01:52:23;20.58;80.76
69084;SHT31;56185;48.526;9.044;2022-08-19T01:54:48;20.60;80.56
69084;SHT31;56185;48.526;9.044;2022-08-19T01:57:13;20.63;80.96
69084;SHT31;56185;48.526;9.044;2022-08-19T01:59:41;20.48;81.94
69084;SHT31;56185;48.526;9.044;2022-08-19T02:02:07;20.56;81.89
69084;SHT31;56185;48.526;9.044;2022-08-19T02:04:33;20.54;81.50
69084;SHT31;56185;48.526;9.044;2022-08-19T02:06:58;20.48;80.67
69084;SHT31;56185;48.526;9.044;2022-08-19T02:09:23;20.47;80.20
69084;SHT31;56185;48.526;9.044;2022-08-19T02:11:49;20.53;80.67
69084;SHT31;56185;48.526;9.044;2022-08-19T02:14:14;20.48;81.70
69084;SHT31;56185;48.526;9.044;2022-08-19T02:16:39;20.51;80.69
69084;SHT31;56185;48.526;9.044;2022-08-19T02:19:04;20.63;80.83
69084;SHT31;56185;48.526;9.044;2022-08-19T02:21:30;20.70;81.10
69084;SHT31;56185;48.526;9.044;2022-08-19T02:23:56;20.60;80.40
69084;SHT31;56185;48.526;9.044;2022-08-19T02:26:22;20.60;79.99
69084;SHT31;56185;48.526;9.044;2022-08-19T02:28:47;20.63;80.76
69084;SHT31;56185;48.526;9.044;2022-08-19T02:31:16;20.51;80.69
69084;SHT31;56185;48.526;9.044;2022-08-19T02:33:43;20.44;80.88
69084;SHT31;56185;48.526;9.044;2022-08-19T02:36:09;20.44;81.36
69084;SHT31;56185;48.526;9.044;2022-08-19T02:38:35;20.43;80.77
69084;SHT31;56185;48.526;9.044;2022-08-19T02:41:03;20.39;81.20
69084;SHT31;56185;48.526;9.044;2022-08-19T02:43:33;20.37;82.09
69084;SHT31;56185;48.526;9.044;2022-08-19T02:45:58;20.40;80.95
69084;SHT31;56185;48.526;9.044;2022-08-19T02:48:25;20.39;81.50
69084;SHT31;56185;48.526;9.044;2022-08-19T02:50:52;20.30;81.17
69084;SHT31;56185;48.526;9.044;2022-08-19T02:53:17;20.32;81.41
69084;SHT31;56185;48.526;9.044;2022-08-19T02:55:44;20.17;82.01
69084;SHT31;56185;48.526;9.044;2022-08-19T02:58:10;20.22;81.10
69084;SHT31;56185;48.526;9.044;2022-08-19T03:00:35;20.33;81.02
69084;SHT31;56185;48.526;9.044;2022-08-19T03:03:00;20.39;80.75
69084;SHT31;56185;48.526;9.044;2022-08-19T03:05:26;20.30;80.93
69084;SHT31;56185;48.526;9.044;2022-08-19T03:07:51;20.37;81.78
69084;SHT31;56185;48.526;9.044;2022-08-19T03:10:16;20.51;80.95
69084;SHT31;56185;48.526;9.044;2022-08-19T03:12:41;20.32;81.26
69084;SHT31;56185;48.526;9.044;2022-08-19T03:15:07;20.23;82.30
69084;SHT31;56185;48.526;9.044;2022-08-19T03:17:34;20.25;81.72
69084;SHT31;56185;48.526;9.044;2022-08-19T03:19:59;20.25;81.18
69084;SHT31;56185;48.526;9.044;2022-08-19T03:22:24;20.23;81.78
69084;SHT31;56185;48.526;9.044;2022-08-19T03:24:50;20.26;81.42
69084;SHT31;56185;48.526;9.044;2022-08-19T03:27:15;20.17;81.06
69084;SHT31;56185;48.526;9.044;2022-08-19T03:29:40;20.19;81.40
69084;SHT31;56185;48.526;9.044;2022-08-19T03:32:06;20.29;80.80
69084;SHT31;56185;48.526;9.044;2022-08-19T03:34:33;20.10;81.77
69084;SHT31;56185;48.526;9.044;2022-08-19T03:37:02;20.20;82.17
69084;SHT31;56185;48.526;9.044;2022-08-19T03:39:28;20.15;81.21
69084;SHT31;56185;48.526;9.044;2022-08-19T03:41:54;20.04;80.90
69084;SHT31;56185;48.526;9.044;2022-08-19T03:44:21;19.98;81.86
69084;SHT31;56185;48.526;9.044;2022-08-19T03:46:54;19.98;81.60
69084;SHT31;56185;48.526;9.044;2022-08-19T03:49:20;19.79;81.76
69084;SHT31;56185;48.526;9.044;2022-08-19T03:51:48;19.85;82.91
69084;SHT31;56185;48.526;9.044;2022-08-19T03:54:17;19.95;82.56
69084;SHT31;56185;48.526;9.044;2022-08-19T03:56:44;19.92;82.20
69084;SHT31;56185;48.526;9.044;2022-08-19T03:59:12;19.89;82.21
69084;SHT31;56185;48.526;9.044;2022-08-19T04:01:38;19.96;81.78
69084;SHT31;56185;48.526;9.044;2022-08-19T04:04:04;19.99;82.00
69084;SHT31;56185;48.526;9.044;2022-08-19T04:06:31;19.95;81.97
69084;SHT31;56185;48.526;9.044;2022-08-19T04:08:59;19.90;81.71
69084;SHT31;56185;48.526;9.044;2022-08-19T04:11:28;19.86;82.42
69084;SHT31;56185;48.526;9.044;2022-08-19T04:13:54;19.81;82.72
69084;SHT31;56185;48.526;9.044;2022-08-19T04:16:22;19.88;82.92
69084;SHT31;56185;48.526;9.044;2022-08-19T04:18:48;19.78;83.11
69084;SHT31;56185;48.526;9.044;2022-08-19T04:21:22;19.79;81.76
69084;SHT31;56185;48.526;9.044;2022-08-19T04:23:48;19.78;82.61
69084;SHT31;56185;48.526;9.044;2022-08-19T04:26:21;19.88;82.17
69084;SHT31;56185;48.526;9.044;2022-08-19T04:28:46;19.82;82.21
69084;SHT31;56185;48.526;9.044;2022-08-19T04:31:18;19.85;81.95
69084;SHT31;56185;48.526;9.044;2022-08-19T04:33:43;19.90;81.61
69084;SHT31;56185;48.526;9.044;2022-08-19T04:36:19;19.92;81.61
69084;SHT31;56185;48.526;9.044;2022-08-19T04:38:44;19.95;81.63
69084;SHT31;56185;48.526;9.044;2022-08-19T04:41:10;19.98;81.60
69084;SHT31;56185;48.526;9.044;2022-08-19T04:43:37;19.92;82.15
69084;SHT31;56185;48.526;9.044;2022-08-19T04:46:07;19.96;82.20
69084;SHT31;56185;48.526;9.044;2022-08-19T04:48:34;20.00;81.85
69084;SHT31;56185;48.526;9.044;2022-08-19T04:51:00;19.89;82.31
69084;SHT31;56185;48.526;9.044;2022-08-19T04:53:28;19.95;82.00
69084;SHT31;56185;48.526;9.044;2022-08-19T04:55:55;19.93;81.86
69084;SHT31;56185;48.526;9.044;2022-08-19T04:58:20;19.99;81.46
69084;SHT31;56185;48.526;9.044;2022-08-19T05:00:46;19.98;82.00
69084;SHT31;56185;48.526;9.044;2022-08-19T05:03:11;19.89;82.48
69084;SHT31;56185;48.526;9.044;2022-08-19T05:05:44;20.08;80.91
69084;SHT31;56185;48.526;9.044;2022-08-19T05:08:11;20.13;81.32
69084;SHT31;56185;48.526;9.044;2022-08-19T05:10:38;20.05;81.26
69084;SHT31;56185;48.526;9.044;2022-08-19T05:13:04;20.04;80.40
69084;SHT31;56185;48.526;9.044;2022-08-19T05:15:30;19.98;81.39
69084;SHT31;56185;48.526;9.044;2022-08-19T05:17:55;19.90;81.74
69084;SHT31;56185;48.526;9.044;2022-08-19T05:20:20;20.06;80.60
69084;SHT31;56185;48.526;9.044;2022-08-19T05:22:46;20.00;80.95
69084;SHT31;56185;48.526;9.044;2022-08-19T05:25:17;19.89;80.41
69084;SHT31;56185;48.526;9.044;2022-08-19T05:27:42;19.90;81.80
69084;SHT31;56185;48.526;9.044;2022-08-19T05:30:09;19.89;82.19
69084;SHT31;56185;48.526;9.044;2022-08-19T05:32:35;19.90;81.43
69084;SHT31;56185;48.526;9.044;2022-08-19T05:35:00;19.92;81.71
69084;SHT31;56185;48.526;9.044;2022-08-19T05:37:26;19.93;81.90
69084;SHT31;56185;48.526;9.044;2022-08-19T05:39:51;20.00;81.15
69084;SHT31;56185;48.526;9.044;2022-08-19T05:42:16;19.96;81.52
69084;SHT31;56185;48.526;9.044;2022-08-19T05:44:43;20.05;81.46
69084;SHT31;56185;48.526;9.044;2022-08-19T05:47:09;19.98;81.63
69084;SHT31;56185;48.526;9.044;2022-08-19T05:49:35;19.99;81.84
69084;SHT31;56185;48.526;9.044;2022-08-19T05:52:06;20.06;81.79
69084;SHT31;56185;48.526;9.044;2022-08-19T05:54:32;20.05;81.34
69084;SHT31;56185;48.526;9.044;2022-08-19T05:56:57;20.00;82.28
69084;SHT31;56185;48.526;9.044;2022-08-19T05:59:23;20.00;81.35
69084;SHT31;56185;48.526;9.044;2022-08-19T06:01:50;20.05;81.80
69084;SHT31;56185;48.526;9.044;2022-08-19T06:04:16;20.02;81.85
69084;SHT31;56185;48.526;9.044;2022-08-19T06:06:42;20.02;81.99
69084;SHT31;56185;48.526;9.044;2022-08-19T06:09:07;20.10;81.33
69084;SHT31;56185;48.526;9.044;2022-08-19T06:14:15;20.17;80.89
69084;SHT31;56185;48.526;9.044;2022-08-19T06:16:41;20.09;81.20
69084;SHT31;56185;48.526;9.044;2022-08-19T06:19:11;20.13;81.43
69084;SHT31;56185;48.526;9.044;2022-08-19T06:21:38;20.22;80.81
69084;SHT31;56185;48.526;9.044;2022-08-19T06:24:06;20.19;80.72
69084;SHT31;56185;48.526;9.044;2022-08-19T06:26:33;20.19;80.80
69084;SHT31;56185;48.526;9.044;2022-08-19T06:28:59;20.17;80.95
69084;SHT31;56185;48.526;9.044;2022-08-19T06:31:26;20.16;80.98
69084;SHT31;56185;48.526;9.044;2022-08-19T06:33:52;20.22;80.66
69084;SHT31;56185;48.526;9.044;2022-08-19T06:36:28;20.37;80.98
69084;SHT31;56185;48.526;9.044;2022-08-19T06:38:54;20.27;80.36
69084;SHT31;56185;48.526;9.044;2022-08-19T06:41:19;20.32;81.14
69084;SHT31;56185;48.526;9.044;2022-08-19T06:43:45;20.37;80.41
69084;SHT31;56185;48.526;9.044;2022-08-19T06:46:14;20.43;80.79
69084;SHT31;56185;48.526;9.044;2022-08-19T06:48:40;20.51;79.61
69084;SHT31;56185;48.526;9.044;2022-08-19T06:51:06;20.53;80.11
69084;SHT31;56185;48.526;9.044;2022-08-19T06:53:32;20.56;80.02
69084;SHT31;56185;48.526;9.044;2022-08-19T06:55:57;20.54;79.90
69084;SHT31;56185;48.526;9.044;2022-08-19T06:58:22;20.51;80.34
69084;SHT31;56185;48.526;9.044;2022-08-19T07:00:48;20.60;79.87
69084;SHT31;56185;48.526;9.044;2022-08-19T07:03:13;20.70;79.30
69084;SHT31;56185;48.526;9.044;2022-08-19T07:05:40;20.71;78.66
69084;SHT31;56185;48.526;9.044;2022-08-19T07:08:05;20.73;78.67
69084;SHT31;56185;48.526;9.044;2022-08-19T07:10:31;20.71;80.56
69084;SHT31;56185;48.526;9.044;2022-08-19T07:12:56;20.66;80.67
69084;SHT31;56185;48.526;9.044;2022-08-19T07:15:21;20.60;80.17
69084;SHT31;56185;48.526;9.044;2022-08-19T07:17:46;20.67;82.21
69084;SHT31;56185;48.526;9.044;2022-08-19T07:20:11;20.64;79.89
69084;SHT31;56185;48.526;9.044;2022-08-19T07:22:38;20.64;80.61
69084;SHT31;56185;48.526;9.044;2022-08-19T07:25:04;20.66;80.37
69084;SHT31;56185;48.526;9.044;2022-08-19T07:27:31;20.54;80.80
69084;SHT31;56185;48.526;9.044;2022-08-19T07:29:56;20.60;81.33
69084;SHT31;56185;48.526;9.044;2022-08-19T07:32:21;20.70;81.91
69084;SHT31;56185;48.526;9.044;2022-08-19T07:34:46;20.53;82.25
69084;SHT31;56185;48.526;9.044;2022-08-19T07:37:12;20.51;81.61
69084;SHT31;56185;48.526;9.044;2022-08-19T07:39:37;20.56;81.58
69084;SHT31;56185;48.526;9.044;2022-08-19T07:42:08;20.56;82.43
69084;SHT31;56185;48.526;9.044;2022-08-19T07:44:34;20.66;82.09
69084;SHT31;56185;48.526;9.044;2022-08-19T07:47:00;20.68;81.61
69084;SHT31;56185;48.526;9.044;2022-08-19T07:49:26;20.50;82.46
69084;SHT31;56185;48.526;9.044;2022-08-19T07:51:56;20.53;83.02
69084;SHT31;56185;48.526;9.044;2022-08-19T07:54:23;20.48;82.29
69084;SHT31;56185;48.526;9.044;2022-08-19T07:56:49;20.53;82.15
69084;SHT31;56185;48.526;9.044;2022-08-19T07:59:14;20.56;81.88
69084;SHT31;56185;48.526;9.044;2022-08-19T08:01:40;20.56;81.67
69084;SHT31;56185;48.526;9.044;2022-08-19T08:04:06;20.43;81.95
69084;SHT31;56185;48.526;9.044;2022-08-19T08:06:32;20.50;82.06
69084;SHT31;56185;48.526;9.044;2022-08-19T08:08:57;20.58;82.08
69084;SHT31;56185;48.526;9.044;2022-08-19T08:11:23;20.68;82.14
69084;SHT31;56185;48.526;9.044;2022-08-19T08:13:48;20.54;82.26
69084;SHT31;56185;48.526;9.044;2022-08-19T08:16:13;20.53;81.91
69084;SHT31;56185;48.526;9.044;2022-08-19T08:18:39;20.44;82.84
69084;SHT31;56185;48.526;9.044;2022-08-19T08:21:04;20.46;82.71
69084;SHT31;56185;48.526;9.044;2022-08-19T08:23:29;20.51;82.66
69084;SHT31;56185;48.526;9.044;2022-08-19T08:25:57;20.53;82.58
69084;SHT31;56185;48.526;9.044;2022-08-19T08:28:22;20.66;81.38
69084;SHT31;56185;48.526;9.044;2022-08-19T08:30:49;20.64;81.73
69084;SHT31;56185;48.526;9.044;2022-08-19T08:33:19;20.71;81.73
69084;SHT31;56185;48.526;9.044;2022-08-19T08:35:45;20.68;82.05
69084;SHT31;56185;48.526;9.044;2022-08-19T08:38:11;20.71;81.89
69084;SHT31;56185;48.526;9.044;2022-08-19T08:40:47;20.91;81.26
69084;SHT31;56185;48.526;9.044;2022-08-19T08:43:21;20.77;81.68
69084;SHT31;56185;48.526;9.044;2022-08-19T08:45:50;20.71;82.42
69084;SHT31;56185;48.526;9.044;2022-08-19T08:48:21;20.71;83.33
69084;SHT31;56185;48.526;9.044;2022-08-19T08:50:49;20.83;82.59
69084;SHT31;56185;48.526;9.044;2022-08-19T08:53:17;20.73;82.40
69084;SHT31;56185;48.526;9.044;2022-08-19T08:55:44;20.63;84.21
69084;SHT31;56185;48.526;9.044;2022-08-19T08:58:15;20.53;84.41
69084;SHT31;56185;48.526;9.044;2022-08-19T09:00:45;20.41;84.54
69084;SHT31;56185;48.526;9.044;2022-08-19T09:03:27;20.44;85.10
69084;SHT31;56185;48.526;9.044;2022-08-19T09:05:58;20.46;84.48
69084;SHT31;56185;48.526;9.044;2022-08-19T09:08:45;20.48;84.74
69084;SHT31;56185;48.526;9.044;2022-08-19T09:11:33;20.58;84.74
69084;SHT31;56185;48.526;9.044;2022-08-19T09:14:21;20.54;85.33
69084;SHT31;56185;48.526;9.044;2022-08-19T09:16:50;20.51;86.82
69084;SHT31;56185;48.526;9.044;2022-08-19T09:19:15;20.57;83.68
69084;SHT31;56185;48.526;9.044;2022-08-19T09:21:40;20.46;84.94
69084;SHT31;56185;48.526;9.044;2022-08-19T09:24:06;20.40;84.92
69084;SHT31;56185;48.526;9.044;2022-08-19T09:26:31;20.32;86.08
69084;SHT31;56185;48.526;9.044;2022-08-19T09:28:57;20.36;85.06
69084;SHT31;56185;48.526;9.044;2022-08-19T09:31:24;20.39;84.71
69084;SHT31;56185;48.526;9.044;2022-08-19T09:33:51;20.27;86.43
69084;SHT31;56185;48.526;9.044;2022-08-19T09:36:19;20.22;86.81
69084;SHT31;56185;48.526;9.044;2022-08-19T09:38:45;20.12;86.95
69084;SHT31;56185;48.526;9.044;2022-08-19T09:41:14;20.25;86.42
69084;SHT31;56185;48.526;9.044;2022-08-19T09:43:41;20.25;86.57
69084;SHT31;56185;48.526;9.044;2022-08-19T09:46:07;20.27;86.48
69084;SHT31;56185;48.526;9.044;2022-08-19T09:48:33;20.36;86.51
69084;SHT31;56185;48.526;9.044;2022-08-19T09:51:10;20.39;86.24
69084;SHT31;56185;48.526;9.044;2022-08-19T09:53:37;20.29;87.66
69084;SHT31;56185;48.526;9.044;2022-08-19T09:56:03;20.16;85.64
69084;SHT31;56185;48.526;9.044;2022-08-19T09:58:29;20.10;85.99
69084;SHT31;56185;48.526;9.044;2022-08-19T10:00:55;20.19;85.64
69084;SHT31;56185;48.526;9.044;2022-08-19T10:03:22;20.09;86.81
69084;SHT31;56185;48.526;9.044;2022-08-19T10:05:48;20.13;86.65
69084;SHT31;56185;48.526;9.044;2022-08-19T10:08:18;20.10;87.68
69084;SHT31;56185;48.526;9.044;2022-08-19T10:10:44;20.10;87.72
69084;SHT31;56185;48.526;9.044;2022-08-19T10:13:10;20.12;87.73
69084;SHT31;56185;48.526;9.044;2022-08-19T10:15:36;20.08;88.01
69084;SHT31;56185;48.526;9.044;2022-08-19T10:18:01;20.17;88.08
69084;SHT31;56185;48.526;9.044;2022-08-19T10:20:26;20.06;88.18
69084;SHT31;56185;48.526;9.044;2022-08-19T10:22:51;20.02;88.71
69084;SHT31;56185;48.526;9.044;2022-08-19T10:25:17;20.10;87.87
69084;SHT31;56185;48.526;9.044;2022-08-19T10:27:42;20.04;88.24
69084;SHT31;56185;48.526;9.044;2022-08-19T10:30:08;20.22;87.43
69084;SHT31;56185;48.526;9.044;2022-08-19T10:32:34;20.36;86.38
69084;SHT31;56185;48.526;9.044;2022-08-19T10:34:59;20.40;86.93
69084;SHT31;56185;48.526;9.044;2022-08-19T10:37:24;20.40;86.54
69084;SHT31;56185;48.526;9.044;2022-08-19T10:39:50;20.48;85.28
69084;SHT31;56185;48.526;9.044;2022-08-19T10:42:16;20.54;85.00
69084;SHT31;56185;48.526;9.044;2022-08-19T10:44:41;20.56;85.11
69084;SHT31;56185;48.526;9.044;2022-08-19T10:47:07;20.53;85.86
69084;SHT31;56185;48.526;9.044;2022-08-19T10:49:32;20.48;85.23
69084;SHT31;56185;48.526;9.044;2022-08-19T10:51:57;20.50;84.62
69084;SHT31;56185;48.526;9.044;2022-08-19T10:54:23;20.48;84.81
69084;SHT31;56185;48.526;9.044;2022-08-19T10:56:48;20.37;86.15
69084;SHT31;56185;48.526;9.044;2022-08-19T10:59:14;20.39;86.28
69084;SHT31;56185;48.526;9.044;2022-08-19T11:01:42;20.39;87.70
69084;SHT31;56185;48.526;9.044;2022-08-19T11:04:07;20.43;86.72
69084;SHT31;56185;48.526;9.044;2022-08-19T11:06:33;20.44;86.30
69084;SHT31;56185;48.526;9.044;2022-08-19T11:14:00;20.50;84.97
69084;SHT31;56185;48.526;9.044;2022-08-19T11:16:26;20.61;85.71
69084;SHT31;56185;48.526;9.044;2022-08-19T11:18:54;20.64;85.61
69084;SHT31;56185;48.526;9.044;2022-08-19T11:23:46;20.63;85.15
69084;SHT31;56185;48.526;9.044;2022-08-19T11:26:13;20.53;85.62
69084;SHT31;56185;48.526;9.044;2022-08-19T11:28:38;20.50;86.30
69084;SHT31;56185;48.526;9.044;2022-08-19T11:31:04;20.67;86.95
69084;SHT31;56185;48.526;9.044;2022-08-19T11:33:33;20.77;85.91
69084;SHT31;56185;48.526;9.044;2022-08-19T11:35:59;20.73;85.72
69084;SHT31;56185;48.526;9.044;2022-08-19T11:38:25;20.70;86.00
69084;SHT31;56185;48.526;9.044;2022-08-19T11:40:55;20.66;84.18
69084;SHT31;56185;48.526;9.044;2022-08-19T11:43:20;20.58;85.70
69084;SHT31;56185;48.526;9.044;2022-08-19T11:45:45;20.56;85.06
69084;SHT31;56185;48.526;9.044;2022-08-19T11:48:10;20.51;84.93
69084;SHT31;56185;48.526;9.044;2022-08-19T11:50:36;20.44;85.51
69084;SHT31;56185;48.526;9.044;2022-08-19T11:53:01;20.47;86.06
69084;SHT31;56185;48.526;9.044;2022-08-19T11:55:26;20.40;85.43
69084;SHT31;56185;48.526;9.044;2022-08-19T11:57:51;20.36;85.46
69084;SHT31;56185;48.526;9.044;2022-08-19T12:00:17;20.39;86.29
69084;SHT31;56185;48.526;9.044;2022-08-19T12:02:42;20.37;85.86
69084;SHT31;56185;48.526;9.044;2022-08-19T12:05:07;20.39;85.72
69084;SHT31;56185;48.526;9.044;2022-08-19T12:07:33;20.40;86.05
69084;SHT31;56185;48.526;9.044;2022-08-19T12:10:00;20.40;85.01
69084;SHT31;56185;48.526;9.044;2022-08-19T12:12:26;20.41;84.86
69084;SHT31;56185;48.526;9.044;2022-08-19T12:14:52;20.37;86.36
69084;SHT31;56185;48.526;9.044;2022-08-19T12:17:17;20.44;85.83
69084;SHT31;56185;48.526;9.044;2022-08-19T12:19:42;20.40;86.38
69084;SHT31;56185;48.526;9.044;2022-08-19T12:22:07;20.47;86.09
69084;SHT31;56185;48.526;9.044;2022-08-19T12:24:33;20.47;86.08
69084;SHT31;56185;48.526;9.044;2022-08-19T12:26:59;20.47;86.26
69084;SHT31;56185;48.526;9.044;2022-08-19T12:29:24;20.53;85.61
69084;SHT31;56185;48.526;9.044;2022-08-19T12:31:50;20.58;86.59
69084;SHT31;56185;48.526;9.044;2022-08-19T12:34:15;20.53;86.02
69084;SHT31;56185;48.526;9.044;2022-08-19T12:36:41;20.54;86.09
69084;SHT31;56185;48.526;9.044;2022-08-19T12:39:06;20.58;86.03
69084;SHT31;56185;48.526;9.044;2022-08-19T12:41:31;20.73;85.09
69084;SHT31;56185;48.526;9.044;2022-08-19T12:43:57;20.67;85.62
69084;SHT31;56185;48.526;9.044;2022-08-19T12:46:22;20.64;84.75
69084;SHT31;56185;48.526;9.044;2022-08-19T12:48:47;20.63;84.99
69084;SHT31;56185;48.526;9.044;2022-08-19T12:51:15;20.70;84.49
69084;SHT31;56185;48.526;9.044;2022-08-19T12:53:41;20.73;85.06
69084;SHT31;56185;48.526;9.044;2022-08-19T12:56:08;20.66;85.68
69084;SHT31;56185;48.526;9.044;2022-08-19T12:58:35;20.77;85.87
69084;SHT31;56185;48.526;9.044;2022-08-19T13:01:09;20.81;86.10
69084;SHT31;56185;48.526;9.044;2022-08-19T13:03:34;20.85;84.87
69084;SHT31;56185;48.526;9.044;2022-08-19T13:05:59;20.87;85.13
69084;SHT31;56185;48.526;9.044;2022-08-19T13:08:25;20.78;84.13
69084;SHT31;56185;48.526;9.044;2022-08-19T13:10:50;20.78;85.05
69084;SHT31;56185;48.526;9.044;2022-08-19T13:13:16;20.75;84.21
69084;SHT31;56185;48.526;9.044;2022-08-19T13:15:42;20.75;83.10
69084;SHT31;56185;48.526;9.044;2022-08-19T13:18:09;20.66;84.08
69084;SHT31;56185;48.526;9.044;2022-08-19T13:20:35;20.60;85.03
69084;SHT31;56185;48.526;9.044;2022-08-19T13:23:01;20.41;86.17
69084;SHT31;56185;48.526;9.044;2022-08-19T13:25:26;20.44;86.06
69084;SHT31;56185;48.526;9.044;2022-08-19T13:27:52;20.44;86.05
69084;SHT31;56185;48.526;9.044;2022-08-19T13:30:19;20.60;85.02
69084;SHT31;56185;48.526;9.044;2022-08-19T13:32:44;20.58;84.74
69084;SHT31;56185;48.526;9.044;2022-08-19T13:35:10;20.77;84.77
69084;SHT31;56185;48.526;9.044;2022-08-19T13:37:35;20.80;84.80
69084;SHT31;56185;48.526;9.044;2022-08-19T13:40:01;20.77;82.96
69084;SHT31;56185;48.526;9.044;2022-08-19T13:42:26;20.74;83.66
69084;SHT31;56185;48.526;9.044;2022-08-19T13:44:53;20.70;84.19
69084;SHT31;56185;48.526;9.044;2022-08-19T13:47:18;20.64;84.47
69084;SHT31;56185;48.526;9.044;2022-08-19T13:49:44;20.71;85.38
69084;SHT31;56185;48.526;9.044;2022-08-19T13:52:09;20.78;84.80
69084;SHT31;56185;48.526;9.044;2022-08-19T13:54:34;20.71;84.75
69084;SHT31;56185;48.526;9.044;2022-08-19T13:56:59;20.66;85.08
69084;SHT31;56185;48.526;9.044;2022-08-19T13:59:25;20.64;85.06
69084;SHT31;56185;48.526;9.044;2022-08-19T14:01:50;20.53;84.63
69084;SHT31;56185;48.526;9.044;2022-08-19T14:04:15;20.46;85.88
69084;SHT31;56185;48.526;9.044;2022-08-19T14:06:40;20.53;85.91
69084;SHT31;56185;48.526;9.044;2022-08-19T14:09:06;20.66;85.91
69084;SHT31;56185;48.526;9.044;2022-08-19T14:11:31;20.80;85.55
69084;SHT31;56185;48.526;9.044;2022-08-19T14:13:56;20.78;85.70
69084;SHT31;56185;48.526;9.044;2022-08-19T14:16:21;20.80;85.19
69084;SHT31;56185;48.526;9.044;2022-08-19T14:18:47;20.74;85.74
69084;SHT31;56185;48.526;9.044;2022-08-19T14:21:17;20.68;84.09
69084;SHT31;56185;48.526;9.044;2022-08-19T14:23:44;20.77;85.64
69084;SHT31;56185;48.526;9.044;2022-08-19T14:26:12;20.77;85.46
69084;SHT31;56185;48.526;9.044;2022-08-19T14:28:39;20.68;85.26
69084;SHT31;56185;48.526;9.044;2022-08-19T14:31:04;20.67;85.08
69084;SHT31;56185;48.526;9.044;2022-08-19T14:33:30;20.80;85.29
69084;SHT31;56185;48.526;9.044;2022-08-19T14:35:55;20.88;85.32
69084;SHT31;56185;48.526;9.044;2022-08-19T14:38:20;20.88;85.72
69084;SHT31;56185;48.526;9.044;2022-08-19T14:40:45;21.05;84.10
69084;SHT31;56185;48.526;9.044;2022-08-19T14:43:11;21.06;84.09
69084;SHT31;56185;48.526;9.044;2022-08-19T14:45:38;21.11;83.86
69084;SHT31;56185;48.526;9.044;2022-08-19T14:48:04;21.18;83.23
69084;SHT31;56185;48.526;9.044;2022-08-19T14:50:30;21.18;83.89
69084;SHT31;56185;48.526;9.044;2022-08-19T14:53:04;21.19;83.37
69084;SHT31;56185;48.526;9.044;2022-08-19T14:55:30;21.05;83.61
69084;SHT31;56185;48.526;9.044;2022-08-19T14:57:55;21.11;84.08
69084;SHT31;56185;48.526;9.044;2022-08-19T15:00:21;21.08;84.46
69084;SHT31;56185;48.526;9.044;2022-08-19T15:02:47;21.01;84.43
69084;SHT31;56185;48.526;9.044;2022-08-19T15:05:12;20.99;84.32
69084;SHT31;56185;48.526;9.044;2022-08-19T15:07:38;20.98;84.15
69084;SHT31;56185;48.526;9.044;2022-08-19T15:10:05;21.04;82.68
69084;SHT31;56185;48.526;9.044;2022-08-19T15:12:30;20.99;83.50
69084;SHT31;56185;48.526;9.044;2022-08-19T15:14:56;20.87;84.89
69084;SHT31;56185;48.526;9.044;2022-08-19T15:17:21;20.88;85.42
69084;SHT31;56185;48.526;9.044;2022-08-19T15:19:47;20.78;85.34
69084;SHT31;56185;48.526;9.044;2022-08-19T15:22:12;20.94;84.78
69084;SHT31;56185;48.526;9.044;2022-08-19T15:24:37;20.91;84.66
69084;SHT31;56185;48.526;9.044;2022-08-19T15:27:03;20.87;84.84
69084;SHT31;56185;48.526;9.044;2022-08-19T15:29:28;20.95;85.45
69084;SHT31;56185;48.526;9.044;2022-08-19T15:31:54;20.94;84.41
69084;SHT31;56185;48.526;9.044;2022-08-19T15:34:19;21.01;84.72
69084;SHT31;56185;48.526;9.044;2022-08-19T15:36:44;20.98;84.13